createdAt,value
2023-03-24T00:01:08.764Z,100.00
2023-03-24T00:04:13.983Z,100.00
2023-03-24T00:07:19.403Z,100.00
2023-03-24T00:10:23.642Z,100.00
2023-03-24T00:13:27.538Z,100.00
2023-03-24T00:16:34.944Z,100.00
2023-03-24T00:19:39.180Z,100.00
2023-03-24T00:22:50.761Z,100.00
2023-03-24T00:26:03.202Z,100.00
2023-03-24T00:29:09.070Z,100.00
2023-03-24T00:32:12.979Z,100.00
2023-03-24T00:35:17.988Z,100.00
2023-03-24T00:38:23.325Z,100.00
2023-03-24T00:41:27.562Z,100.00
2023-03-24T00:44:31.137Z,100.00
2023-03-24T00:47:38.651Z,100.00
2023-03-24T00:50:47.764Z,100.00
2023-03-24T00:53:57.912Z,100.00
2023-03-24T00:57:03.249Z,100.00
2023-03-24T01:00:14.355Z,100.00
2023-03-24T01:03:19.538Z,100.00
2023-03-24T01:06:23.665Z,100.00
2023-03-24T01:09:28.690Z,100.00
2023-03-24T01:12:37.033Z,100.00
2023-03-24T01:15:40.524Z,100.00
2023-03-24T01:18:45.053Z,100.00
2023-03-24T01:21:50.972Z,100.00
2023-03-24T01:24:56.023Z,100.00
2023-03-24T01:27:59.853Z,100.00
2023-03-24T01:31:03.374Z,100.00
2023-03-24T01:34:07.016Z,100.00
2023-03-24T01:37:10.643Z,100.00
2023-03-24T01:40:20.859Z,100.00
2023-03-24T01:43:31.106Z,100.00
2023-03-24T01:46:34.673Z,100.00
2023-03-24T01:49:44.373Z,100.00
2023-03-24T01:52:47.975Z,100.00
2023-03-24T01:55:54.292Z,100.00
2023-03-24T01:59:03.535Z,100.00
2023-03-24T02:02:08.377Z,100.00
2023-03-24T02:05:15.122Z,100.00
2023-03-24T02:08:29.469Z,100.00
2023-03-24T02:11:37.345Z,100.00
2023-03-24T02:14:41.300Z,100.00
2023-03-24T02:18:01.061Z,100.00
2023-03-24T02:21:44.890Z,100.00
2023-03-24T02:25:37.096Z,100.00
2023-03-24T02:28:57.041Z,100.00
2023-03-24T02:32:24.889Z,100.00
2023-03-24T02:36:05.027Z,100.00
2023-03-24T02:40:08.034Z,100.00
2023-03-24T02:43:28.457Z,100.00
2023-03-24T02:46:43.551Z,100.00
2023-03-24T02:50:01.453Z,100.00
2023-03-24T02:53:16.650Z,100.00
2023-03-24T02:56:30.175Z,100.00
2023-03-24T02:59:41.971Z,100.00
2023-03-24T03:02:51.970Z,100.00
2023-03-24T03:06:02.241Z,100.00
2023-03-24T03:09:11.974Z,100.00
2023-03-24T03:12:19.171Z,100.00
2023-03-24T03:15:29.290Z,100.00
2023-03-24T03:18:41.052Z,100.00
2023-03-24T03:21:49.683Z,100.00
2023-03-24T03:24:57.581Z,100.00
2023-03-24T03:28:06.129Z,100.00
2023-03-24T03:31:18.140Z,100.00
2023-03-24T03:34:36.018Z,100.00
2023-03-24T03:37:51.321Z,100.00
2023-03-24T03:40:59.431Z,100.00
2023-03-24T03:44:03.376Z,100.00
2023-03-24T03:47:08.730Z,100.00
2023-03-24T03:50:12.876Z,100.00
2023-03-24T03:53:23.116Z,100.00
2023-03-24T03:56:30.359Z,100.00
2023-03-24T03:59:36.890Z,100.00
2023-03-24T04:03:05.420Z,100.00
2023-03-24T04:06:25.348Z,100.00
2023-03-24T04:09:47.040Z,100.00
2023-03-24T04:13:20.123Z,100.00
2023-03-24T04:16:40.619Z,100.00
2023-03-24T04:20:05.708Z,100.00
2023-03-24T04:23:26.349Z,100.00
2023-03-24T04:26:41.521Z,100.00
2023-03-24T04:29:58.298Z,100.00
2023-03-24T04:33:08.702Z,100.00
2023-03-24T04:36:22.392Z,100.00
2023-03-24T04:39:30.347Z,100.00
2023-03-24T04:42:38.912Z,100.00
2023-03-24T04:45:43.337Z,100.00
2023-03-24T04:48:48.259Z,100.00
2023-03-24T04:51:54.060Z,100.00
2023-03-24T04:54:57.704Z,100.00
2023-03-24T04:58:01.225Z,100.00
2023-03-24T05:01:06.033Z,100.00
2023-03-24T05:04:09.982Z,100.00
2023-03-24T05:07:15.373Z,100.00
2023-03-24T05:10:21.745Z,100.00
2023-03-24T05:13:25.701Z,100.00
2023-03-24T05:16:29.264Z,100.00
2023-03-24T05:19:33.047Z,100.00
2023-03-24T05:22:38.267Z,100.00
2023-03-24T05:25:44.413Z,100.00
2023-03-24T05:28:55.702Z,100.00
2023-03-24T05:31:59.196Z,100.00
2023-03-24T05:35:02.972Z,100.00
2023-03-24T05:38:07.957Z,100.00
2023-03-24T05:41:11.605Z,100.00
2023-03-24T05:44:15.620Z,100.00
2023-03-24T05:47:20.361Z,100.00
2023-03-24T05:50:24.579Z,100.00
2023-03-24T05:53:29.504Z,100.00
2023-03-24T05:56:33.285Z,100.00
2023-03-24T05:59:38.074Z,100.00
2023-03-24T06:02:41.779Z,100.00
2023-03-24T06:05:48.112Z,100.00
2023-03-24T06:08:54.855Z,100.00
2023-03-24T06:11:58.698Z,100.00
2023-03-24T06:15:02.310Z,100.00
2023-03-24T06:18:05.967Z,100.00
2023-03-24T06:21:09.738Z,100.00
2023-03-24T06:24:15.478Z,100.00
2023-03-24T06:27:21.741Z,100.00
2023-03-24T06:30:25.205Z,100.00
2023-03-24T06:33:28.668Z,100.00
2023-03-24T06:36:34.623Z,100.00
2023-03-24T06:39:39.628Z,100.00
2023-03-24T06:42:43.493Z,100.00
2023-03-24T06:45:47.401Z,100.00
2023-03-24T06:48:51.221Z,100.00
2023-03-24T06:51:55.086Z,100.00
2023-03-24T06:54:59.918Z,100.00
2023-03-24T06:58:03.503Z,100.00
2023-03-24T07:01:07.316Z,100.00
2023-03-24T07:04:11.368Z,100.00
2023-03-24T07:07:41.491Z,100.00
2023-03-24T07:10:41.100Z,100.00
2023-03-24T07:13:44.794Z,100.00
2023-03-24T07:16:48.470Z,100.00
2023-03-24T07:19:53.184Z,100.00
2023-03-24T07:22:57.936Z,100.00
2023-03-24T07:26:02.911Z,100.00
2023-03-24T07:29:06.882Z,100.00
2023-03-24T07:32:10.951Z,100.00
2023-03-24T07:35:14.728Z,100.00
2023-03-24T07:38:18.372Z,100.00
2023-03-24T07:41:24.599Z,100.00
2023-03-24T07:44:28.153Z,100.00
2023-03-24T07:47:31.673Z,100.00
2023-03-24T07:50:35.156Z,100.00
2023-03-24T07:53:38.769Z,100.00
2023-03-24T07:56:43.662Z,100.00
2023-03-24T07:59:47.136Z,100.00
2023-03-24T08:02:53.793Z,100.00
2023-03-24T08:05:57.654Z,100.00
2023-03-24T08:09:01.417Z,100.00
2023-03-24T08:12:13.794Z,100.00
2023-03-24T08:15:23.848Z,100.00
2023-03-24T08:18:28.177Z,100.00
2023-03-24T08:21:32.080Z,100.00
2023-03-24T08:24:37.986Z,100.00
2023-03-24T08:27:44.893Z,100.00
2023-03-24T08:30:49.008Z,100.00
2023-03-24T08:33:54.872Z,100.00
2023-03-24T08:36:58.381Z,100.00
2023-03-24T08:40:05.522Z,100.00
2023-03-24T08:43:16.097Z,100.00
2023-03-24T08:46:19.644Z,100.00
2023-03-24T08:49:23.269Z,100.00
2023-03-24T08:52:27.006Z,100.00
2023-03-24T08:55:30.936Z,100.00
2023-03-24T08:58:36.350Z,100.00
2023-03-24T09:01:40.786Z,100.00
2023-03-24T09:04:45.960Z,100.00
2023-03-24T09:07:51.137Z,100.00
2023-03-24T09:10:54.689Z,100.00
2023-03-24T09:13:59.629Z,100.00
2023-03-24T09:17:03.195Z,100.00
2023-03-24T09:20:11.659Z,100.00
2023-03-24T09:23:16.242Z,100.00
2023-03-24T09:26:19.797Z,100.00
2023-03-24T09:29:24.697Z,100.00
2023-03-24T09:32:28.370Z,100.00
2023-03-24T09:35:31.920Z,100.00
2023-03-24T09:38:36.060Z,100.00
2023-03-24T09:41:39.635Z,100.00
2023-03-24T09:44:52.309Z,100.00
2023-03-24T09:48:04.659Z,100.00
2023-03-24T09:51:14.731Z,100.00
2023-03-24T09:54:27.801Z,100.00
2023-03-24T09:57:39.452Z,100.00
2023-03-24T10:00:46.634Z,100.00
2023-03-24T10:03:50.591Z,100.00
2023-03-24T10:07:02.650Z,100.00
2023-03-24T10:10:27.398Z,100.00
2023-03-24T10:13:45.073Z,100.00
2023-03-24T10:16:59.292Z,100.00
2023-03-24T10:20:17.047Z,100.00
2023-03-24T10:23:34.939Z,100.00
2023-03-24T10:26:50.681Z,100.00
2023-03-24T10:30:02.505Z,100.00
2023-03-24T10:33:07.588Z,100.00
2023-03-24T10:36:14.999Z,100.00
2023-03-24T10:39:21.133Z,100.00
2023-03-24T10:42:37.568Z,100.00
2023-03-24T10:45:46.213Z,100.00
2023-03-24T10:48:54.458Z,100.00
2023-03-24T10:52:04.658Z,100.00
2023-03-24T10:55:15.140Z,100.00
2023-03-24T10:58:30.633Z,100.00
2023-03-24T11:01:35.341Z,100.00
2023-03-24T11:04:44.998Z,100.00
2023-03-24T11:07:51.760Z,100.00
2023-03-24T11:10:57.034Z,100.00
2023-03-24T11:14:03.532Z,100.00
2023-03-24T11:17:16.259Z,100.00
2023-03-24T11:20:28.806Z,100.00
2023-03-24T11:23:35.905Z,100.00
2023-03-24T11:26:42.089Z,100.00
2023-03-24T11:29:49.903Z,100.00
2023-03-24T11:32:56.466Z,100.00
2023-03-24T11:36:05.832Z,100.00
2023-03-24T11:39:15.345Z,100.00
2023-03-24T11:42:19.626Z,100.00
2023-03-24T11:45:35.587Z,100.00
2023-03-24T11:48:49.940Z,100.00
2023-03-24T11:51:57.192Z,100.00
2023-03-24T11:55:00.948Z,100.00
2023-03-24T11:58:14.024Z,100.00
2023-03-24T12:01:33.098Z,100.00
2023-03-24T12:05:12.334Z,100.00
2023-03-24T12:08:46.322Z,100.00
2023-03-24T12:12:20.913Z,100.00
2023-03-24T12:15:41.268Z,100.00
2023-03-24T12:19:16.387Z,100.00
2023-03-24T12:22:39.296Z,100.00
2023-03-24T12:26:19.068Z,100.00
2023-03-24T12:29:59.441Z,100.00
2023-03-24T12:33:27.211Z,100.00
2023-03-24T12:36:47.676Z,99.74
2023-03-24T12:40:10.293Z,93.68
2023-03-24T12:43:32.002Z,94.56
2023-03-24T12:46:50.425Z,95.82
2023-03-24T12:50:25.620Z,97.20
2023-03-24T12:54:00.914Z,100.00
2023-03-24T12:57:13.049Z,97.68
2023-03-24T13:00:25.998Z,97.58
2023-03-24T13:03:38.782Z,98.83
2023-03-24T13:06:53.247Z,97.72
2023-03-24T13:10:05.357Z,98.45
2023-03-24T13:13:18.333Z,100.00
2023-03-24T13:16:30.918Z,100.00
2023-03-24T13:19:37.177Z,100.00
2023-03-24T13:22:42.536Z,100.00
2023-03-24T13:25:55.222Z,100.00
2023-03-24T13:29:21.162Z,100.00
2023-03-24T13:32:36.131Z,100.00
2023-03-24T13:36:08.690Z,100.00
2023-03-24T13:39:18.092Z,100.00
2023-03-24T13:42:34.072Z,100.00
2023-03-24T13:45:47.814Z,100.00
2023-03-24T13:48:58.251Z,100.00
2023-03-24T13:52:07.658Z,100.00
2023-03-24T13:55:16.769Z,100.00
2023-03-24T13:58:24.478Z,100.00
2023-03-24T14:01:39.620Z,100.00
2023-03-24T14:04:49.964Z,100.00
2023-03-24T14:08:18.476Z,100.00
2023-03-24T14:11:49.467Z,100.00
2023-03-24T14:15:20.490Z,100.00
2023-03-24T14:18:44.184Z,100.00
2023-03-24T14:22:00.505Z,100.00
2023-03-24T14:25:22.042Z,100.00
2023-03-24T14:28:34.916Z,100.00
2023-03-24T14:31:38.532Z,100.00
2023-03-24T14:34:54.277Z,100.00
2023-03-24T14:38:04.494Z,100.00
2023-03-24T14:41:14.666Z,100.00
2023-03-24T14:45:03.014Z,100.00
2023-03-24T14:48:24.617Z,100.00
2023-03-24T14:51:40.089Z,100.00
2023-03-24T14:54:53.660Z,100.00
2023-03-24T14:58:03.493Z,100.00
2023-03-24T15:01:11.022Z,100.00
2023-03-24T15:04:14.718Z,100.00
2023-03-24T15:07:18.194Z,100.00
2023-03-24T15:10:23.341Z,100.00
2023-03-24T15:13:40.416Z,100.00
2023-03-24T15:16:52.004Z,100.00
2023-03-24T15:19:56.478Z,100.00
2023-03-24T15:23:08.915Z,100.00
2023-03-24T15:26:16.305Z,100.00
2023-03-24T15:29:20.634Z,100.00
2023-03-24T15:32:27.555Z,100.00
2023-03-24T15:35:35.788Z,100.00
2023-03-24T15:38:47.800Z,100.00
2023-03-24T15:41:53.967Z,100.00
2023-03-24T15:45:08.422Z,100.00
2023-03-24T15:48:19.298Z,100.00
2023-03-24T15:51:53.930Z,100.00
2023-03-24T15:55:01.872Z,100.00
2023-03-24T15:58:24.231Z,100.00
2023-03-24T16:01:36.214Z,100.00
2023-03-24T16:04:41.965Z,100.00
2023-03-24T16:07:57.102Z,100.00
2023-03-24T16:11:05.109Z,100.00
2023-03-24T16:14:23.729Z,100.00
2023-03-24T16:17:27.353Z,100.00
2023-03-24T16:20:30.898Z,100.00
2023-03-24T16:23:35.899Z,100.00
2023-03-24T16:26:39.472Z,100.00
2023-03-24T16:29:43.308Z,100.00
2023-03-24T16:32:46.813Z,100.00
2023-03-24T16:35:51.133Z,100.00
2023-03-24T16:38:58.680Z,100.00
2023-03-24T16:42:02.218Z,100.00
2023-03-24T16:45:06.949Z,100.00
2023-03-24T16:48:12.425Z,100.00
2023-03-24T16:51:18.101Z,100.00
2023-03-24T16:54:22.987Z,100.00
2023-03-24T16:57:26.605Z,100.00
2023-03-24T17:00:30.650Z,100.00
2023-03-24T17:03:35.673Z,100.00
2023-03-24T17:06:42.970Z,100.00
2023-03-24T17:09:50.061Z,100.00
2023-03-24T17:12:57.667Z,100.00
2023-03-24T17:16:01.376Z,100.00
2023-03-24T17:19:05.113Z,100.00
2023-03-24T17:22:11.261Z,100.00
2023-03-24T17:25:21.264Z,100.00
2023-03-24T17:28:24.811Z,100.00
2023-03-24T17:31:28.549Z,100.00
2023-03-24T17:34:32.194Z,100.00
2023-03-24T17:37:36.905Z,100.00
2023-03-24T17:40:41.848Z,100.00
2023-03-24T17:43:47.637Z,100.00
2023-03-24T17:46:51.392Z,100.00
2023-03-24T17:49:55.236Z,100.00
2023-03-24T17:53:00.634Z,100.00
2023-03-24T17:56:07.144Z,100.00
2023-03-24T17:59:10.670Z,100.00
2023-03-24T18:02:14.997Z,100.00
2023-03-24T18:05:18.739Z,100.00
2023-03-24T18:08:22.354Z,100.00
2023-03-24T18:11:27.309Z,100.00
2023-03-24T18:14:30.943Z,100.00
2023-03-24T18:17:34.518Z,100.00
2023-03-24T18:20:39.307Z,100.00
2023-03-24T18:23:42.846Z,100.00
2023-03-24T18:26:49.248Z,100.00
2023-03-24T18:29:54.083Z,100.00
2023-03-24T18:33:01.283Z,100.00
2023-03-24T18:36:06.020Z,100.00
2023-03-24T18:39:10.825Z,100.00
2023-03-24T18:42:16.220Z,100.00
2023-03-24T18:45:19.900Z,100.00
2023-03-24T18:48:23.985Z,100.00
2023-03-24T18:51:28.286Z,100.00
2023-03-24T18:54:31.883Z,100.00
2023-03-24T18:57:37.237Z,100.00
2023-03-24T19:00:41.301Z,100.00
2023-03-24T19:03:46.029Z,100.00
2023-03-24T19:06:50.452Z,100.00
2023-03-24T19:09:54.289Z,100.00
2023-03-24T19:12:59.372Z,100.00
2023-03-24T19:16:04.363Z,100.00
2023-03-24T19:19:08.206Z,100.00
2023-03-24T19:22:11.723Z,100.00
2023-03-24T19:25:16.160Z,100.00
2023-03-24T19:28:21.490Z,100.00
2023-03-24T19:31:25.234Z,100.00
2023-03-24T19:34:28.780Z,100.00
2023-03-24T19:37:33.178Z,100.00
2023-03-24T19:40:37.004Z,100.00
2023-03-24T19:43:42.732Z,100.00
2023-03-24T19:46:46.281Z,100.00
2023-03-24T19:49:49.924Z,100.00
2023-03-24T19:52:53.648Z,100.00
2023-03-24T19:55:58.984Z,100.00
2023-03-24T19:59:04.004Z,100.00
2023-03-24T20:02:07.670Z,100.00
2023-03-24T20:05:12.115Z,100.00
2023-03-24T20:08:16.078Z,100.00
2023-03-24T20:11:19.675Z,100.00
2023-03-24T20:14:24.815Z,100.00
2023-03-24T20:17:29.603Z,100.00
2023-03-24T20:20:33.375Z,100.00
2023-03-24T20:23:36.942Z,100.00
2023-03-24T20:26:40.740Z,100.00
2023-03-24T20:29:46.484Z,100.00
2023-03-24T20:32:50.173Z,100.00
2023-03-24T20:35:53.870Z,100.00
2023-03-24T20:38:59.648Z,100.00
2023-03-24T20:42:04.008Z,100.00
2023-03-24T20:45:11.725Z,100.00
2023-03-24T20:48:15.480Z,100.00
2023-03-24T20:51:19.445Z,100.00
2023-03-24T20:54:23.123Z,100.00
2023-03-24T20:57:26.914Z,100.00
2023-03-24T21:00:31.913Z,100.00
2023-03-24T21:03:36.428Z,100.00
2023-03-24T21:06:40.060Z,100.00
2023-03-24T21:09:43.645Z,100.00
2023-03-24T21:12:54.494Z,100.00
2023-03-24T21:15:59.800Z,100.00
2023-03-24T21:19:03.805Z,100.00
2023-03-24T21:22:07.374Z,100.00
2023-03-24T21:25:11.016Z,100.00
2023-03-24T21:28:14.544Z,100.00
2023-03-24T21:31:23.294Z,100.00
2023-03-24T21:34:26.825Z,100.00
2023-03-24T21:37:30.485Z,100.00
2023-03-24T21:40:34.183Z,100.00
2023-03-24T21:43:40.471Z,100.00
2023-03-24T21:46:47.729Z,100.00
2023-03-24T21:49:53.201Z,100.00
2023-03-24T21:52:57.271Z,100.00
2023-03-24T21:56:04.586Z,100.00
2023-03-24T21:59:08.332Z,100.00
2023-03-24T22:02:17.283Z,100.00
2023-03-24T22:05:23.624Z,100.00
2023-03-24T22:08:30.566Z,100.00
2023-03-24T22:11:34.979Z,100.00
2023-03-24T22:14:38.524Z,100.00
2023-03-24T22:17:43.470Z,100.00
2023-03-24T22:20:55.349Z,100.00
2023-03-24T22:23:58.801Z,100.00
2023-03-24T22:27:02.263Z,100.00
2023-03-24T22:30:08.078Z,100.00
2023-03-24T22:33:12.985Z,100.00
2023-03-24T22:36:16.725Z,100.00
2023-03-24T22:39:21.452Z,100.00
2023-03-24T22:42:25.336Z,100.00
2023-03-24T22:45:28.860Z,100.00
2023-03-24T22:48:33.999Z,100.00
2023-03-24T22:51:37.571Z,100.00
2023-03-24T22:54:41.708Z,100.00
2023-03-24T22:57:45.178Z,100.00
2023-03-24T23:00:51.555Z,100.00
2023-03-24T23:03:56.445Z,100.00
2023-03-24T23:06:59.932Z,100.00
2023-03-24T23:10:06.452Z,100.00
2023-03-24T23:13:10.464Z,100.00
2023-03-24T23:16:14.101Z,100.00
2023-03-24T23:19:19.743Z,100.00
2023-03-24T23:22:23.590Z,100.00
2023-03-24T23:25:30.572Z,100.00
2023-03-24T23:28:35.847Z,100.00
2023-03-24T23:31:41.161Z,100.00
2023-03-24T23:34:48.770Z,100.00
2023-03-24T23:37:52.560Z,100.00
2023-03-24T23:40:56.299Z,100.00
2023-03-24T23:44:00.060Z,100.00
2023-03-24T23:47:03.588Z,100.00
2023-03-24T23:50:10.599Z,100.00
2023-03-24T23:53:14.138Z,100.00
2023-03-24T23:56:21.321Z,100.00
2023-03-24T23:59:24.831Z,100.00
